sensor_id;sensor_type;location;lat;lon;timestamp;P1;durP1;ratioP1;P2;durP2;ratioP2
71464;SDS011;59274;49.874;9.154;2023-08-31T00:00:29;2.50;;;1.20;;
71464;SDS011;59274;49.874;9.154;2023-08-31T00:02:56;4.07;;;1.45;;
71464;SDS011;59274;49.874;9.154;2023-08-31T00:05:22;3.08;;;1.60;;
71464;SDS011;59274;49.874;9.154;2023-08-31T00:07:49;3.13;;;1.50;;
71464;SDS011;59274;49.874;9.154;2023-08-31T00:10:16;2.88;;;1.42;;
71464;SDS011;59274;49.874;9.154;2023-08-31T00:12:42;4.03;;;1.77;;
71464;SDS011;59274;49.874;9.154;2023-08-31T00:15:08;3.57;;;1.70;;
71464;SDS011;59274;49.874;9.154;2023-08-31T00:17:34;3.28;;;1.60;;
71464;SDS011;59274;49.874;9.154;2023-08-31T00:20:00;2.85;;;1.70;;
71464;SDS011;59274;49.874;9.154;2023-08-31T00:22:25;4.57;;;2.20;;
71464;SDS011;59274;49.874;9.154;2023-08-31T00:24:51;3.93;;;1.83;;
71464;SDS011;59274;49.874;9.154;2023-08-31T00:27:17;4.50;;;1.75;;
71464;SDS011;59274;49.874;9.154;2023-08-31T00:29:43;4.88;;;2.20;;
71464;SDS011;59274;49.874;9.154;2023-08-31T00:32:14;3.00;;;1.60;;
71464;SDS011;59274;49.874;9.154;2023-08-31T00:34:40;4.40;;;2.13;;
71464;SDS011;59274;49.874;9.154;2023-08-31T00:37:05;4.40;;;1.93;;
71464;SDS011;59274;49.874;9.154;2023-08-31T00:39:31;4.05;;;2.05;;
71464;SDS011;59274;49.874;9.154;2023-08-31T00:41:58;4.68;;;2.10;;
71464;SDS011;59274;49.874;9.154;2023-08-31T00:44:24;3.45;;;1.80;;
71464;SDS011;59274;49.874;9.154;2023-08-31T00:46:50;4.43;;;2.20;;
71464;SDS011;59274;49.874;9.154;2023-08-31T00:49:15;3.83;;;1.95;;
71464;SDS011;59274;49.874;9.154;2023-08-31T00:51:44;3.60;;;1.93;;
71464;SDS011;59274;49.874;9.154;2023-08-31T00:54:14;5.22;;;2.40;;
71464;SDS011;59274;49.874;9.154;2023-08-31T00:56:41;3.58;;;1.92;;
71464;SDS011;59274;49.874;9.154;2023-08-31T00:59:07;7.03;;;2.40;;
71464;SDS011;59274;49.874;9.154;2023-08-31T01:07:06;4.55;;;2.20;;
71464;SDS011;59274;49.874;9.154;2023-08-31T01:10:06;4.90;;;2.53;;
71464;SDS011;59274;49.874;9.154;2023-08-31T01:12:41;3.77;;;2.00;;
71464;SDS011;59274;49.874;9.154;2023-08-31T01:15:16;5.45;;;2.30;;
71464;SDS011;59274;49.874;9.154;2023-08-31T01:17:52;4.63;;;2.20;;
71464;SDS011;59274;49.874;9.154;2023-08-31T01:20:26;4.25;;;2.08;;
71464;SDS011;59274;49.874;9.154;2023-08-31T01:23:13;7.78;;;2.70;;
71464;SDS011;59274;49.874;9.154;2023-08-31T01:25:43;6.37;;;2.30;;
71464;SDS011;59274;49.874;9.154;2023-08-31T01:28:10;3.97;;;2.08;;
71464;SDS011;59274;49.874;9.154;2023-08-31T01:30:36;4.75;;;2.30;;
71464;SDS011;59274;49.874;9.154;2023-08-31T01:33:01;4.50;;;2.20;;
71464;SDS011;59274;49.874;9.154;2023-08-31T01:35:27;3.63;;;2.10;;
71464;SDS011;59274;49.874;9.154;2023-08-31T01:37:59;4.30;;;2.30;;
71464;SDS011;59274;49.874;9.154;2023-08-31T01:40:50;5.28;;;2.10;;
71464;SDS011;59274;49.874;9.154;2023-08-31T01:43:24;4.80;;;2.50;;
71464;SDS011;59274;49.874;9.154;2023-08-31T01:45:50;5.60;;;2.30;;
71464;SDS011;59274;49.874;9.154;2023-08-31T01:48:15;4.60;;;2.30;;
71464;SDS011;59274;49.874;9.154;2023-08-31T01:50:41;4.57;;;2.17;;
71464;SDS011;59274;49.874;9.154;2023-08-31T01:53:06;4.13;;;2.13;;
71464;SDS011;59274;49.874;9.154;2023-08-31T01:55:32;5.20;;;2.50;;
71464;SDS011;59274;49.874;9.154;2023-08-31T01:57:58;3.58;;;1.98;;
71464;SDS011;59274;49.874;9.154;2023-08-31T02:00:24;5.27;;;2.20;;
71464;SDS011;59274;49.874;9.154;2023-08-31T02:02:50;4.10;;;2.03;;
71464;SDS011;59274;49.874;9.154;2023-08-31T02:05:16;4.43;;;2.13;;
71464;SDS011;59274;49.874;9.154;2023-08-31T02:07:41;5.37;;;2.10;;
71464;SDS011;59274;49.874;9.154;2023-08-31T02:10:07;5.00;;;2.30;;
71464;SDS011;59274;49.874;9.154;2023-08-31T02:12:33;4.85;;;2.20;;
71464;SDS011;59274;49.874;9.154;2023-08-31T02:14:59;5.47;;;2.40;;
71464;SDS011;59274;49.874;9.154;2023-08-31T02:17:24;5.60;;;2.67;;
71464;SDS011;59274;49.874;9.154;2023-08-31T02:19:50;4.83;;;2.17;;
71464;SDS011;59274;49.874;9.154;2023-08-31T02:22:16;5.13;;;2.25;;
71464;SDS011;59274;49.874;9.154;2023-08-31T02:24:41;4.60;;;2.40;;
71464;SDS011;59274;49.874;9.154;2023-08-31T02:27:07;4.70;;;2.57;;
71464;SDS011;59274;49.874;9.154;2023-08-31T02:29:32;4.20;;;2.03;;
71464;SDS011;59274;49.874;9.154;2023-08-31T02:31:58;5.35;;;2.38;;
71464;SDS011;59274;49.874;9.154;2023-08-31T02:34:23;5.67;;;2.17;;
71464;SDS011;59274;49.874;9.154;2023-08-31T02:36:49;7.73;;;2.80;;
71464;SDS011;59274;49.874;9.154;2023-08-31T02:39:14;4.93;;;2.57;;
71464;SDS011;59274;49.874;9.154;2023-08-31T02:41:41;5.10;;;2.53;;
71464;SDS011;59274;49.874;9.154;2023-08-31T02:44:06;5.30;;;2.58;;
71464;SDS011;59274;49.874;9.154;2023-08-31T02:46:32;5.10;;;2.37;;
71464;SDS011;59274;49.874;9.154;2023-08-31T02:48:57;6.53;;;2.90;;
71464;SDS011;59274;49.874;9.154;2023-08-31T02:51:23;4.60;;;2.37;;
71464;SDS011;59274;49.874;9.154;2023-08-31T02:53:48;5.07;;;2.58;;
71464;SDS011;59274;49.874;9.154;2023-08-31T02:56:14;7.40;;;2.60;;
71464;SDS011;59274;49.874;9.154;2023-08-31T02:58:39;6.53;;;2.60;;
71464;SDS011;59274;49.874;9.154;2023-08-31T03:03:40;11.43;;;2.53;;
71464;SDS011;59274;49.874;9.154;2023-08-31T03:06:07;5.70;;;2.13;;
71464;SDS011;59274;49.874;9.154;2023-08-31T03:08:35;6.97;;;2.95;;
71464;SDS011;59274;49.874;9.154;2023-08-31T03:11:02;5.63;;;2.53;;
71464;SDS011;59274;49.874;9.154;2023-08-31T03:13:29;5.82;;;2.80;;
71464;SDS011;59274;49.874;9.154;2023-08-31T03:15:54;5.87;;;2.30;;
71464;SDS011;59274;49.874;9.154;2023-08-31T03:18:21;5.45;;;2.85;;
71464;SDS011;59274;49.874;9.154;2023-08-31T03:20:47;5.78;;;2.55;;
71464;SDS011;59274;49.874;9.154;2023-08-31T03:23:12;10.15;;;3.70;;
71464;SDS011;59274;49.874;9.154;2023-08-31T03:25:38;10.37;;;3.90;;
71464;SDS011;59274;49.874;9.154;2023-08-31T03:28:03;11.97;;;4.50;;
71464;SDS011;59274;49.874;9.154;2023-08-31T03:30:29;11.43;;;5.20;;
71464;SDS011;59274;49.874;9.154;2023-08-31T03:32:54;7.67;;;4.23;;
71464;SDS011;59274;49.874;9.154;2023-08-31T03:35:19;11.00;;;5.07;;
71464;SDS011;59274;49.874;9.154;2023-08-31T03:37:49;8.83;;;4.40;;
71464;SDS011;59274;49.874;9.154;2023-08-31T03:40:14;11.48;;;4.80;;
71464;SDS011;59274;49.874;9.154;2023-08-31T03:42:40;12.17;;;5.27;;
71464;SDS011;59274;49.874;9.154;2023-08-31T03:45:05;12.73;;;5.15;;
71464;SDS011;59274;49.874;9.154;2023-08-31T03:47:31;9.73;;;5.23;;
71464;SDS011;59274;49.874;9.154;2023-08-31T03:49:57;11.23;;;5.53;;
71464;SDS011;59274;49.874;9.154;2023-08-31T03:52:22;12.07;;;5.93;;
71464;SDS011;59274;49.874;9.154;2023-08-31T03:54:48;12.10;;;6.40;;
71464;SDS011;59274;49.874;9.154;2023-08-31T03:57:14;17.17;;;6.63;;
71464;SDS011;59274;49.874;9.154;2023-08-31T03:59:40;12.32;;;5.78;;
71464;SDS011;59274;49.874;9.154;2023-08-31T04:02:05;13.07;;;6.50;;
71464;SDS011;59274;49.874;9.154;2023-08-31T04:04:31;12.23;;;6.70;;
71464;SDS011;59274;49.874;9.154;2023-08-31T04:06:57;11.48;;;6.78;;
71464;SDS011;59274;49.874;9.154;2023-08-31T04:09:22;11.40;;;6.43;;
71464;SDS011;59274;49.874;9.154;2023-08-31T04:11:48;11.60;;;6.38;;
71464;SDS011;59274;49.874;9.154;2023-08-31T04:14:13;10.60;;;6.40;;
71464;SDS011;59274;49.874;9.154;2023-08-31T04:16:39;15.43;;;6.90;;
71464;SDS011;59274;49.874;9.154;2023-08-31T04:19:04;13.73;;;6.90;;
71464;SDS011;59274;49.874;9.154;2023-08-31T04:21:30;14.20;;;7.17;;
71464;SDS011;59274;49.874;9.154;2023-08-31T04:23:55;14.02;;;6.95;;
71464;SDS011;59274;49.874;9.154;2023-08-31T04:26:21;12.13;;;7.00;;
71464;SDS011;59274;49.874;9.154;2023-08-31T04:28:46;12.43;;;7.00;;
71464;SDS011;59274;49.874;9.154;2023-08-31T04:31:11;12.93;;;7.17;;
71464;SDS011;59274;49.874;9.154;2023-08-31T04:33:37;17.23;;;7.20;;
71464;SDS011;59274;49.874;9.154;2023-08-31T04:36:04;17.20;;;7.32;;
71464;SDS011;59274;49.874;9.154;2023-08-31T04:38:31;15.07;;;7.43;;
71464;SDS011;59274;49.874;9.154;2023-08-31T04:41:00;14.57;;;7.45;;
71464;SDS011;59274;49.874;9.154;2023-08-31T04:43:26;13.10;;;7.10;;
71464;SDS011;59274;49.874;9.154;2023-08-31T04:45:52;13.43;;;7.20;;
71464;SDS011;59274;49.874;9.154;2023-08-31T04:48:18;15.57;;;7.70;;
71464;SDS011;59274;49.874;9.154;2023-08-31T04:50:44;13.20;;;7.27;;
71464;SDS011;59274;49.874;9.154;2023-08-31T04:53:09;14.87;;;7.27;;
71464;SDS011;59274;49.874;9.154;2023-08-31T04:55:34;14.45;;;7.38;;
71464;SDS011;59274;49.874;9.154;2023-08-31T04:58:00;12.23;;;6.80;;
71464;SDS011;59274;49.874;9.154;2023-08-31T05:00:25;13.33;;;7.27;;
71464;SDS011;59274;49.874;9.154;2023-08-31T05:02:51;13.13;;;7.68;;
71464;SDS011;59274;49.874;9.154;2023-08-31T05:05:16;12.95;;;7.75;;
71464;SDS011;59274;49.874;9.154;2023-08-31T05:07:43;11.50;;;6.50;;
71464;SDS011;59274;49.874;9.154;2023-08-31T05:10:09;8.50;;;4.38;;
71464;SDS011;59274;49.874;9.154;2023-08-31T05:12:35;6.50;;;3.43;;
71464;SDS011;59274;49.874;9.154;2023-08-31T05:15:00;6.68;;;3.28;;
71464;SDS011;59274;49.874;9.154;2023-08-31T05:17:25;5.03;;;2.43;;
71464;SDS011;59274;49.874;9.154;2023-08-31T05:19:51;6.60;;;3.30;;
71464;SDS011;59274;49.874;9.154;2023-08-31T05:22:16;7.57;;;2.83;;
71464;SDS011;59274;49.874;9.154;2023-08-31T05:24:42;5.72;;;3.40;;
71464;SDS011;59274;49.874;9.154;2023-08-31T05:27:08;5.23;;;3.03;;
71464;SDS011;59274;49.874;9.154;2023-08-31T05:29:33;5.30;;;3.08;;
71464;SDS011;59274;49.874;9.154;2023-08-31T05:31:59;5.17;;;2.00;;
71464;SDS011;59274;49.874;9.154;2023-08-31T05:34:24;3.13;;;1.80;;
71464;SDS011;59274;49.874;9.154;2023-08-31T05:36:50;2.47;;;1.73;;
71464;SDS011;59274;49.874;9.154;2023-08-31T05:39:16;3.07;;;1.23;;
71464;SDS011;59274;49.874;9.154;2023-08-31T05:41:42;1.60;;;1.02;;
71464;SDS011;59274;49.874;9.154;2023-08-31T05:44:08;1.02;;;1.00;;
71464;SDS011;59274;49.874;9.154;2023-08-31T05:46:34;0.80;;;0.80;;
71464;SDS011;59274;49.874;9.154;2023-08-31T05:49:00;0.80;;;0.70;;
71464;SDS011;59274;49.874;9.154;2023-08-31T05:51:25;0.80;;;0.70;;
71464;SDS011;59274;49.874;9.154;2023-08-31T05:53:51;0.60;;;0.60;;
71464;SDS011;59274;49.874;9.154;2023-08-31T05:56:18;0.70;;;0.70;;
71464;SDS011;59274;49.874;9.154;2023-08-31T05:58:44;0.63;;;0.63;;
71464;SDS011;59274;49.874;9.154;2023-08-31T06:01:10;0.50;;;0.50;;
71464;SDS011;59274;49.874;9.154;2023-08-31T06:03:35;0.50;;;0.50;;
71464;SDS011;59274;49.874;9.154;2023-08-31T06:06:01;0.60;;;0.60;;
71464;SDS011;59274;49.874;9.154;2023-08-31T06:08:28;1.13;;;1.00;;
71464;SDS011;59274;49.874;9.154;2023-08-31T06:10:55;0.52;;;0.52;;
71464;SDS011;59274;49.874;9.154;2023-08-31T06:13:21;0.53;;;0.53;;
71464;SDS011;59274;49.874;9.154;2023-08-31T06:15:47;0.60;;;0.60;;
71464;SDS011;59274;49.874;9.154;2023-08-31T06:18:12;0.57;;;0.57;;
71464;SDS011;59274;49.874;9.154;2023-08-31T06:20:38;0.60;;;0.60;;
71464;SDS011;59274;49.874;9.154;2023-08-31T06:23:03;0.50;;;0.50;;
71464;SDS011;59274;49.874;9.154;2023-08-31T06:25:28;0.50;;;0.50;;
71464;SDS011;59274;49.874;9.154;2023-08-31T06:27:54;0.60;;;0.60;;
71464;SDS011;59274;49.874;9.154;2023-08-31T06:30:19;0.60;;;0.60;;
71464;SDS011;59274;49.874;9.154;2023-08-31T06:32:45;0.60;;;0.60;;
71464;SDS011;59274;49.874;9.154;2023-08-31T06:35:12;0.60;;;0.60;;
71464;SDS011;59274;49.874;9.154;2023-08-31T06:37:38;0.60;;;0.60;;
71464;SDS011;59274;49.874;9.154;2023-08-31T06:40:05;0.63;;;0.63;;
71464;SDS011;59274;49.874;9.154;2023-08-31T06:42:33;0.60;;;0.60;;
71464;SDS011;59274;49.874;9.154;2023-08-31T06:44:58;0.47;;;0.47;;
71464;SDS011;59274;49.874;9.154;2023-08-31T06:47:24;0.60;;;0.60;;
71464;SDS011;59274;49.874;9.154;2023-08-31T06:49:49;0.60;;;0.60;;
71464;SDS011;59274;49.874;9.154;2023-08-31T06:52:15;0.60;;;0.60;;
71464;SDS011;59274;49.874;9.154;2023-08-31T06:54:41;0.60;;;0.60;;
71464;SDS011;59274;49.874;9.154;2023-08-31T06:57:06;0.50;;;0.50;;
71464;SDS011;59274;49.874;9.154;2023-08-31T06:59:32;0.60;;;0.60;;
71464;SDS011;59274;49.874;9.154;2023-08-31T07:01:58;0.70;;;0.70;;
71464;SDS011;59274;49.874;9.154;2023-08-31T07:04:23;0.63;;;0.63;;
71464;SDS011;59274;49.874;9.154;2023-08-31T07:06:48;0.50;;;0.50;;
71464;SDS011;59274;49.874;9.154;2023-08-31T07:09:14;2.00;;;0.90;;
71464;SDS011;59274;49.874;9.154;2023-08-31T07:11:39;0.40;;;0.40;;
71464;SDS011;59274;49.874;9.154;2023-08-31T07:14:04;0.40;;;0.40;;
71464;SDS011;59274;49.874;9.154;2023-08-31T07:16:30;0.50;;;0.50;;
71464;SDS011;59274;49.874;9.154;2023-08-31T07:18:55;0.60;;;0.60;;
71464;SDS011;59274;49.874;9.154;2023-08-31T07:21:21;0.70;;;0.70;;
71464;SDS011;59274;49.874;9.154;2023-08-31T07:23:47;0.50;;;0.50;;
71464;SDS011;59274;49.874;9.154;2023-08-31T07:26:16;0.40;;;0.40;;
71464;SDS011;59274;49.874;9.154;2023-08-31T07:28:42;0.70;;;0.70;;
71464;SDS011;59274;49.874;9.154;2023-08-31T07:31:07;0.70;;;0.70;;
71464;SDS011;59274;49.874;9.154;2023-08-31T07:33:33;0.60;;;0.60;;
71464;SDS011;59274;49.874;9.154;2023-08-31T07:35:59;0.70;;;0.70;;
71464;SDS011;59274;49.874;9.154;2023-08-31T07:38:26;0.75;;;0.75;;
71464;SDS011;59274;49.874;9.154;2023-08-31T07:40:53;0.40;;;0.40;;
71464;SDS011;59274;49.874;9.154;2023-08-31T07:43:18;0.70;;;0.70;;
71464;SDS011;59274;49.874;9.154;2023-08-31T07:45:44;0.60;;;0.60;;
71464;SDS011;59274;49.874;9.154;2023-08-31T07:48:09;0.60;;;0.60;;
71464;SDS011;59274;49.874;9.154;2023-08-31T07:50:35;0.57;;;0.57;;
71464;SDS011;59274;49.874;9.154;2023-08-31T07:53:00;0.50;;;0.50;;
71464;SDS011;59274;49.874;9.154;2023-08-31T07:55:26;0.70;;;0.70;;
71464;SDS011;59274;49.874;9.154;2023-08-31T07:57:51;0.50;;;0.50;;
71464;SDS011;59274;49.874;9.154;2023-08-31T08:00:16;0.60;;;0.60;;
71464;SDS011;59274;49.874;9.154;2023-08-31T08:02:44;0.50;;;0.50;;
71464;SDS011;59274;49.874;9.154;2023-08-31T08:05:10;0.50;;;0.50;;
71464;SDS011;59274;49.874;9.154;2023-08-31T08:07:36;0.63;;;0.63;;
71464;SDS011;59274;49.874;9.154;2023-08-31T08:10:01;0.60;;;0.60;;
71464;SDS011;59274;49.874;9.154;2023-08-31T08:12:27;0.60;;;0.60;;
71464;SDS011;59274;49.874;9.154;2023-08-31T08:14:52;0.60;;;0.60;;
71464;SDS011;59274;49.874;9.154;2023-08-31T08:17:18;0.57;;;0.57;;
71464;SDS011;59274;49.874;9.154;2023-08-31T08:19:43;0.50;;;0.50;;
71464;SDS011;59274;49.874;9.154;2023-08-31T08:22:08;0.60;;;0.60;;
71464;SDS011;59274;49.874;9.154;2023-08-31T08:24:34;0.40;;;0.40;;
71464;SDS011;59274;49.874;9.154;2023-08-31T08:27:00;0.50;;;0.50;;
71464;SDS011;59274;49.874;9.154;2023-08-31T08:29:25;0.45;;;0.45;;
71464;SDS011;59274;49.874;9.154;2023-08-31T08:31:51;0.43;;;0.43;;
71464;SDS011;59274;49.874;9.154;2023-08-31T08:34:16;0.53;;;0.53;;
71464;SDS011;59274;49.874;9.154;2023-08-31T08:36:41;0.50;;;0.50;;
71464;SDS011;59274;49.874;9.154;2023-08-31T08:39:07;0.65;;;0.65;;
71464;SDS011;59274;49.874;9.154;2023-08-31T08:41:32;0.57;;;0.57;;
71464;SDS011;59274;49.874;9.154;2023-08-31T08:44:01;0.40;;;0.40;;
71464;SDS011;59274;49.874;9.154;2023-08-31T08:46:31;0.52;;;0.52;;
71464;SDS011;59274;49.874;9.154;2023-08-31T08:48:57;0.60;;;0.60;;
71464;SDS011;59274;49.874;9.154;2023-08-31T08:51:29;0.60;;;0.60;;
71464;SDS011;59274;49.874;9.154;2023-08-31T08:53:56;0.60;;;0.60;;
71464;SDS011;59274;49.874;9.154;2023-08-31T08:56:24;0.37;;;0.37;;
71464;SDS011;59274;49.874;9.154;2023-08-31T08:58:49;0.50;;;0.50;;
71464;SDS011;59274;49.874;9.154;2023-08-31T09:01:15;0.53;;;0.53;;
71464;SDS011;59274;49.874;9.154;2023-08-31T09:03:43;0.60;;;0.60;;
71464;SDS011;59274;49.874;9.154;2023-08-31T09:06:08;0.53;;;0.53;;
71464;SDS011;59274;49.874;9.154;2023-08-31T09:08:35;0.70;;;0.70;;
71464;SDS011;59274;49.874;9.154;2023-08-31T09:11:02;0.60;;;0.60;;
71464;SDS011;59274;49.874;9.154;2023-08-31T09:13:28;0.50;;;0.50;;
71464;SDS011;59274;49.874;9.154;2023-08-31T09:15:54;0.63;;;0.63;;
71464;SDS011;59274;49.874;9.154;2023-08-31T09:18:24;0.50;;;0.50;;
71464;SDS011;59274;49.874;9.154;2023-08-31T09:20:50;0.40;;;0.40;;
71464;SDS011;59274;49.874;9.154;2023-08-31T09:23:16;0.60;;;0.60;;
71464;SDS011;59274;49.874;9.154;2023-08-31T09:25:52;0.70;;;0.70;;
71464;SDS011;59274;49.874;9.154;2023-08-31T09:28:19;0.60;;;0.60;;
71464;SDS011;59274;49.874;9.154;2023-08-31T09:30:47;0.60;;;0.60;;
71464;SDS011;59274;49.874;9.154;2023-08-31T09:33:14;0.70;;;0.70;;
71464;SDS011;59274;49.874;9.154;2023-08-31T09:36:07;0.75;;;0.75;;
71464;SDS011;59274;49.874;9.154;2023-08-31T09:38:32;0.50;;;0.50;;
71464;SDS011;59274;49.874;9.154;2023-08-31T09:41:06;0.82;;;0.73;;
71464;SDS011;59274;49.874;9.154;2023-08-31T09:43:32;0.60;;;0.60;;
71464;SDS011;59274;49.874;9.154;2023-08-31T09:45:57;0.50;;;0.50;;
71464;SDS011;59274;49.874;9.154;2023-08-31T09:48:24;0.70;;;0.70;;
71464;SDS011;59274;49.874;9.154;2023-08-31T09:50:51;0.38;;;0.38;;
71464;SDS011;59274;49.874;9.154;2023-08-31T09:53:17;0.80;;;0.80;;
71464;SDS011;59274;49.874;9.154;2023-08-31T09:55:46;0.60;;;0.60;;
71464;SDS011;59274;49.874;9.154;2023-08-31T09:58:13;0.70;;;0.70;;
71464;SDS011;59274;49.874;9.154;2023-08-31T10:00:42;0.70;;;0.70;;
71464;SDS011;59274;49.874;9.154;2023-08-31T10:03:08;0.50;;;0.50;;
71464;SDS011;59274;49.874;9.154;2023-08-31T10:05:39;0.70;;;0.70;;
71464;SDS011;59274;49.874;9.154;2023-08-31T10:08:05;0.67;;;0.67;;
71464;SDS011;59274;49.874;9.154;2023-08-31T10:10:32;0.60;;;0.60;;
71464;SDS011;59274;49.874;9.154;2023-08-31T10:12:58;0.30;;;0.30;;
71464;SDS011;59274;49.874;9.154;2023-08-31T10:15:24;0.50;;;0.50;;
71464;SDS011;59274;49.874;9.154;2023-08-31T10:17:56;0.60;;;0.60;;
71464;SDS011;59274;49.874;9.154;2023-08-31T10:20:23;0.60;;;0.60;;
71464;SDS011;59274;49.874;9.154;2023-08-31T10:22:48;0.50;;;0.50;;
71464;SDS011;59274;49.874;9.154;2023-08-31T10:25:14;0.47;;;0.47;;
71464;SDS011;59274;49.874;9.154;2023-08-31T10:27:40;0.50;;;0.50;;
71464;SDS011;59274;49.874;9.154;2023-08-31T10:38:15;0.40;;;0.40;;
71464;SDS011;59274;49.874;9.154;2023-08-31T10:41:00;0.50;;;0.50;;
71464;SDS011;59274;49.874;9.154;2023-08-31T10:46:30;0.60;;;0.60;;
71464;SDS011;59274;49.874;9.154;2023-08-31T10:51:26;0.60;;;0.60;;
71464;SDS011;59274;49.874;9.154;2023-08-31T10:54:03;0.60;;;0.60;;
71464;SDS011;59274;49.874;9.154;2023-08-31T10:56:38;0.40;;;0.40;;
71464;SDS011;59274;49.874;9.154;2023-08-31T10:59:44;0.60;;;0.60;;
71464;SDS011;59274;49.874;9.154;2023-08-31T11:02:09;0.60;;;0.60;;
71464;SDS011;59274;49.874;9.154;2023-08-31T11:07:24;0.70;;;0.70;;
71464;SDS011;59274;49.874;9.154;2023-08-31T11:09:51;0.75;;;0.75;;
71464;SDS011;59274;49.874;9.154;2023-08-31T11:12:16;0.70;;;0.70;;
71464;SDS011;59274;49.874;9.154;2023-08-31T11:14:42;0.70;;;0.70;;
71464;SDS011;59274;49.874;9.154;2023-08-31T11:17:07;0.77;;;0.77;;
71464;SDS011;59274;49.874;9.154;2023-08-31T11:19:34;0.65;;;0.65;;
71464;SDS011;59274;49.874;9.154;2023-08-31T11:22:00;0.70;;;0.70;;
71464;SDS011;59274;49.874;9.154;2023-08-31T11:24:28;0.60;;;0.60;;
71464;SDS011;59274;49.874;9.154;2023-08-31T11:26:57;0.70;;;0.70;;
71464;SDS011;59274;49.874;9.154;2023-08-31T11:29:23;0.70;;;0.70;;
71464;SDS011;59274;49.874;9.154;2023-08-31T11:31:48;0.80;;;0.80;;
71464;SDS011;59274;49.874;9.154;2023-08-31T11:34:17;0.70;;;0.70;;
71464;SDS011;59274;49.874;9.154;2023-08-31T11:36:44;0.73;;;0.73;;
71464;SDS011;59274;49.874;9.154;2023-08-31T11:39:11;0.60;;;0.60;;
71464;SDS011;59274;49.874;9.154;2023-08-31T11:41:37;0.60;;;0.60;;
71464;SDS011;59274;49.874;9.154;2023-08-31T11:44:13;0.60;;;0.60;;
71464;SDS011;59274;49.874;9.154;2023-08-31T11:46:43;0.60;;;0.60;;
71464;SDS011;59274;49.874;9.154;2023-08-31T11:49:11;0.90;;;0.90;;
71464;SDS011;59274;49.874;9.154;2023-08-31T11:51:37;0.50;;;0.50;;
71464;SDS011;59274;49.874;9.154;2023-08-31T11:54:05;0.80;;;0.80;;
71464;SDS011;59274;49.874;9.154;2023-08-31T11:56:43;0.70;;;0.70;;
71464;SDS011;59274;49.874;9.154;2023-08-31T11:59:19;0.60;;;0.60;;
71464;SDS011;59274;49.874;9.154;2023-08-31T12:01:45;0.70;;;0.70;;
71464;SDS011;59274;49.874;9.154;2023-08-31T12:04:13;0.70;;;0.70;;
71464;SDS011;59274;49.874;9.154;2023-08-31T12:06:39;0.70;;;0.70;;
71464;SDS011;59274;49.874;9.154;2023-08-31T12:09:09;0.57;;;0.57;;
71464;SDS011;59274;49.874;9.154;2023-08-31T12:11:35;0.70;;;0.70;;
71464;SDS011;59274;49.874;9.154;2023-08-31T12:14:01;0.67;;;0.67;;
71464;SDS011;59274;49.874;9.154;2023-08-31T12:16:32;0.60;;;0.60;;
71464;SDS011;59274;49.874;9.154;2023-08-31T12:19:04;0.60;;;0.60;;
71464;SDS011;59274;49.874;9.154;2023-08-31T12:21:30;0.60;;;0.60;;
71464;SDS011;59274;49.874;9.154;2023-08-31T12:23:59;0.40;;;0.40;;
71464;SDS011;59274;49.874;9.154;2023-08-31T12:26:25;0.70;;;0.70;;
71464;SDS011;59274;49.874;9.154;2023-08-31T12:28:51;0.50;;;0.50;;
71464;SDS011;59274;49.874;9.154;2023-08-31T12:31:17;0.60;;;0.60;;
71464;SDS011;59274;49.874;9.154;2023-08-31T12:33:43;0.60;;;0.60;;
71464;SDS011;59274;49.874;9.154;2023-08-31T12:36:08;0.80;;;0.80;;
71464;SDS011;59274;49.874;9.154;2023-08-31T12:38:34;0.57;;;0.57;;
71464;SDS011;59274;49.874;9.154;2023-08-31T12:41:00;0.75;;;0.75;;
71464;SDS011;59274;49.874;9.154;2023-08-31T12:43:26;0.80;;;0.80;;
71464;SDS011;59274;49.874;9.154;2023-08-31T12:45:54;0.70;;;0.70;;
71464;SDS011;59274;49.874;9.154;2023-08-31T12:48:20;1.02;;;0.95;;
71464;SDS011;59274;49.874;9.154;2023-08-31T12:50:45;0.60;;;0.60;;
71464;SDS011;59274;49.874;9.154;2023-08-31T12:53:13;0.80;;;0.80;;
71464;SDS011;59274;49.874;9.154;2023-08-31T12:55:39;0.80;;;0.80;;
71464;SDS011;59274;49.874;9.154;2023-08-31T12:58:04;0.60;;;0.60;;
71464;SDS011;59274;49.874;9.154;2023-08-31T13:00:30;0.70;;;0.70;;
71464;SDS011;59274;49.874;9.154;2023-08-31T13:02:55;0.85;;;0.85;;
71464;SDS011;59274;49.874;9.154;2023-08-31T13:05:20;0.70;;;0.70;;
71464;SDS011;59274;49.874;9.154;2023-08-31T13:07:46;0.87;;;0.87;;
71464;SDS011;59274;49.874;9.154;2023-08-31T13:10:11;1.00;;;1.00;;
71464;SDS011;59274;49.874;9.154;2023-08-31T13:12:37;0.80;;;0.80;;
71464;SDS011;59274;49.874;9.154;2023-08-31T13:15:02;0.90;;;0.90;;
71464;SDS011;59274;49.874;9.154;2023-08-31T13:17:28;0.90;;;0.90;;
71464;SDS011;59274;49.874;9.154;2023-08-31T13:19:54;0.85;;;0.85;;
71464;SDS011;59274;49.874;9.154;2023-08-31T13:22:20;0.90;;;0.90;;
71464;SDS011;59274;49.874;9.154;2023-08-31T13:24:46;0.68;;;0.68;;
71464;SDS011;59274;49.874;9.154;2023-08-31T13:27:12;0.87;;;0.87;;
71464;SDS011;59274;49.874;9.154;2023-08-31T13:29:38;0.80;;;0.80;;
71464;SDS011;59274;49.874;9.154;2023-08-31T13:32:04;0.80;;;0.80;;
71464;SDS011;59274;49.874;9.154;2023-08-31T13:34:30;0.90;;;0.90;;
71464;SDS011;59274;49.874;9.154;2023-08-31T13:36:56;0.90;;;0.90;;
71464;SDS011;59274;49.874;9.154;2023-08-31T13:39:21;0.90;;;0.90;;
71464;SDS011;59274;49.874;9.154;2023-08-31T13:41:50;0.77;;;0.73;;
71464;SDS011;59274;49.874;9.154;2023-08-31T13:44:17;0.70;;;0.70;;
71464;SDS011;59274;49.874;9.154;2023-08-31T13:46:43;0.90;;;0.90;;
71464;SDS011;59274;49.874;9.154;2023-08-31T13:49:11;0.90;;;0.90;;
71464;SDS011;59274;49.874;9.154;2023-08-31T13:51:36;0.90;;;0.90;;
71464;SDS011;59274;49.874;9.154;2023-08-31T13:54:03;1.00;;;1.00;;
71464;SDS011;59274;49.874;9.154;2023-08-31T13:56:29;0.70;;;0.70;;
71464;SDS011;59274;49.874;9.154;2023-08-31T13:58:54;1.00;;;1.00;;
71464;SDS011;59274;49.874;9.154;2023-08-31T14:01:20;0.90;;;0.90;;
71464;SDS011;59274;49.874;9.154;2023-08-31T14:03:45;0.90;;;0.90;;
71464;SDS011;59274;49.874;9.154;2023-08-31T14:06:11;1.20;;;1.10;;
71464;SDS011;59274;49.874;9.154;2023-08-31T14:08:40;1.00;;;1.00;;
71464;SDS011;59274;49.874;9.154;2023-08-31T14:11:05;1.20;;;1.10;;
71464;SDS011;59274;49.874;9.154;2023-08-31T14:13:31;0.90;;;0.90;;
71464;SDS011;59274;49.874;9.154;2023-08-31T14:15:57;1.40;;;1.30;;
71464;SDS011;59274;49.874;9.154;2023-08-31T14:18:23;0.80;;;0.80;;
71464;SDS011;59274;49.874;9.154;2023-08-31T14:20:50;0.90;;;0.90;;
71464;SDS011;59274;49.874;9.154;2023-08-31T14:23:16;1.30;;;1.20;;
71464;SDS011;59274;49.874;9.154;2023-08-31T14:25:41;1.30;;;1.20;;
71464;SDS011;59274;49.874;9.154;2023-08-31T14:28:07;0.80;;;0.80;;
71464;SDS011;59274;49.874;9.154;2023-08-31T14:30:34;1.30;;;1.20;;
71464;SDS011;59274;49.874;9.154;2023-08-31T14:33:00;0.70;;;0.70;;
71464;SDS011;59274;49.874;9.154;2023-08-31T14:35:26;0.80;;;0.80;;
71464;SDS011;59274;49.874;9.154;2023-08-31T14:37:52;0.90;;;0.90;;
71464;SDS011;59274;49.874;9.154;2023-08-31T14:40:18;4.63;;;1.10;;
71464;SDS011;59274;49.874;9.154;2023-08-31T14:42:43;0.80;;;0.80;;
71464;SDS011;59274;49.874;9.154;2023-08-31T14:45:09;1.10;;;0.80;;
71464;SDS011;59274;49.874;9.154;2023-08-31T14:47:34;0.80;;;0.80;;
71464;SDS011;59274;49.874;9.154;2023-08-31T14:50:00;0.80;;;0.80;;
71464;SDS011;59274;49.874;9.154;2023-08-31T14:52:25;0.70;;;0.70;;
71464;SDS011;59274;49.874;9.154;2023-08-31T14:54:50;0.80;;;0.80;;
71464;SDS011;59274;49.874;9.154;2023-08-31T14:57:16;0.70;;;0.70;;
71464;SDS011;59274;49.874;9.154;2023-08-31T14:59:42;0.70;;;0.70;;
71464;SDS011;59274;49.874;9.154;2023-08-31T15:02:07;0.40;;;0.40;;
71464;SDS011;59274;49.874;9.154;2023-08-31T15:04:33;0.67;;;0.67;;
71464;SDS011;59274;49.874;9.154;2023-08-31T15:06:59;0.77;;;0.75;;